Česky Dansk Deutsch English Español Suomi Français Magyar Italiano Nederlands norsk Polski Português svenska Türkçe

 

Het Weer

Setif (Algeria)

07:00, 23 augustus 2016 (GMT)

NWNNE
WE
SWSSE
Home            
Setif Bejaia Jijel Achouat Batna Constantine Bou-Saada Biskra Skikda Dar-El-Beida Annaba Tebessa Djelfa Jendouba El Oued Tabarka Touggourt Tozeur Laghouat Gafsa Chlef Tiaret Bizerte Tilrempt/Hassi R'mel

Om een weerknop op uw website of weblog te plaatsen, copieer onderstaande code en plak die in uw pagina. In het eerste vakje staat HTML-code, in het tweede vakje UBB-code.


Add to Google

Details

Visibility:Greater than 10000 m, 10 km, 32800 ft, 6.2 miles
Clouds:CAVOC
Temperature:20°C, 68°F
Dew-point:10°C, 50°F
Atmospheric pressure:1025 hPa, 768.8 mmHg, 30.27 inHg, 1.012 atm
Relative humidity:52.5 %
METAR:DAAS 230700Z 00000KT CAVOK 20/10 Q1025

Snelkoppelingen

Actuele weersinformatie van de hele wereld. Voeg locaties toe met het plus (+) symbool. Deze snelkoppelingen kunnen worden toegevoegd aan Google.

Lid van de Technetium groep

website free tracking
StatCounter NetStat W3C Validator

29-09-2022 03:26:51
astro.technetium.be money.technetium.be phote.technetium.be tafeltennistafel.technetium.be www.ligfiets.net